Time;durP1;ratioP1;P1;durP2;ratioP2;P2;SDS_P1;SDS_P2;PMS_P1;PMS_P2;Temp;Humidity;BMP_temperature;BMP_pressure;BME280_temperature;BME280_humidity;BME280_pressure;Samples;Min_cycle;Max_cycle;Signal;HPM_P1;HPM_P2
2021/05/31 00:02:02;;;;;;;32.17;17.70;;;;;;;19.66;47.40;102174.34;5074691;28;20458;-45
2021/05/31 00:04:30;;;;;;;30.50;17.67;;;;;;;20.08;46.63;102172.81;5073681;28;20473;-52
2021/05/31 00:07:02;;;;;;;35.90;18.57;;;;;;;19.92;46.23;102173.25;5074354;28;20555;-48
2021/05/31 00:09:31;;;;;;;33.97;19.20;;;;;;;19.41;48.60;102172.78;5074013;28;20570;-51
2021/05/31 00:11:59;;;;;;;29.13;16.67;;;;;;;19.69;47.13;102168.31;5074860;28;20474;-47
2021/05/31 00:14:26;;;;;;;37.20;19.00;;;;;;;19.80;46.46;102165.97;5074214;28;20551;-49
2021/05/31 00:16:53;;;;;;;39.40;19.40;;;;;;;19.55;47.69;102166.19;5074533;28;20486;-49
2021/05/31 00:19:22;;;;;;;37.00;20.27;;;;;;;19.26;48.31;102157.56;5073889;28;20523;-51
2021/05/31 00:21:49;;;;;;;37.23;18.30;;;;;;;19.15;48.95;102162.47;5074914;28;20514;-47
2021/05/31 00:24:17;;;;;;;35.40;20.37;;;;;;;19.29;48.24;102147.19;5075025;28;20448;-50
2021/05/31 00:26:45;;;;;;;43.40;18.83;;;;;;;19.64;47.60;102149.84;5074127;28;20481;-53
2021/05/31 00:29:13;;;;;;;37.67;19.10;;;;;;;19.64;47.09;102152.47;5074988;28;20475;-48
2021/05/31 00:31:40;;;;;;;35.00;19.43;;;;;;;19.69;47.21;102150.00;5073725;28;20508;-49
2021/05/31 00:34:07;;;;;;;41.27;20.50;;;;;;;19.67;47.20;102147.31;5075255;28;20489;-48
2021/05/31 00:36:34;;;;;;;37.10;19.90;;;;;;;19.47;47.54;102152.03;5073400;28;20475;-51
2021/05/31 00:39:01;;;;;;;36.97;19.93;;;;;;;19.42;47.97;102144.06;5074763;28;21001;-51
2021/05/31 00:41:28;;;;;;;38.50;21.20;;;;;;;19.51;47.65;102145.13;5073543;28;20486;-53
2021/05/31 00:43:56;;;;;;;42.50;21.00;;;;;;;19.68;47.48;102150.81;5075109;28;20459;-48
2021/05/31 00:46:25;;;;;;;38.13;19.70;;;;;;;19.62;46.96;102145.41;5073497;28;20479;-49
2021/05/31 00:48:53;;;;;;;39.67;20.20;;;;;;;19.56;47.32;102151.38;5074661;28;20475;-47
2021/05/31 00:51:20;;;;;;;33.90;19.90;;;;;;;19.18;48.39;102153.84;5073255;28;20486;-46
2021/05/31 00:53:48;;;;;;;39.80;21.30;;;;;;;19.15;48.08;102154.63;5075468;28;20455;-47
2021/05/31 00:56:15;;;;;;;45.27;21.93;;;;;;;19.10;48.15;102158.84;5077048;28;20937;-47
2021/05/31 00:58:43;;;;;;;44.73;21.20;;;;;;;19.58;47.98;102152.31;5078538;28;20478;-46
2021/05/31 01:01:11;;;;;;;40.80;21.17;;;;;;;19.73;47.21;102153.56;5077270;28;20485;-50
2021/05/31 01:03:38;;;;;;;40.87;21.70;;;;;;;19.56;47.55;102147.06;5078579;28;20589;-50
2021/05/31 01:06:07;;;;;;;45.33;22.53;;;;;;;19.23;47.93;102147.88;5077011;28;20479;-50
2021/05/31 01:08:39;;;;;;;42.53;21.77;;;;;;;19.05;48.21;102156.09;5078604;28;20976;-50
2021/05/31 01:11:09;;;;;;;47.30;23.00;;;;;;;18.97;48.23;102145.38;5076765;28;20550;-51
2021/05/31 01:13:42;;;;;;;39.80;21.57;;;;;;;19.27;48.94;102149.75;5078513;28;20460;-47
2021/05/31 01:16:13;;;;;;;46.93;21.57;;;;;;;19.12;48.08;102144.09;5076881;28;20491;-50
2021/05/31 01:18:43;;;;;;;37.37;19.33;;;;;;;18.91;48.32;102150.44;5078300;28;20478;-47
2021/05/31 01:21:24;;;;;;;43.40;21.50;;;;;;;19.24;47.86;102146.16;5076987;28;20478;-52
2021/05/31 01:23:57;;;;;;;43.60;21.10;;;;;;;18.73;49.47;102150.78;5077921;28;20742;-50
2021/05/31 01:26:25;;;;;;;45.03;21.30;;;;;;;18.70;48.54;102146.34;5076514;28;20485;-48
2021/05/31 01:29:00;;;;;;;41.97;20.67;;;;;;;18.75;49.21;102144.75;5077503;28;20505;-46
2021/05/31 01:31:37;;;;;;;38.60;19.13;;;;;;;18.82;48.18;102153.66;5064847;28;20487;-48
2021/05/31 01:34:06;;;;;;;39.53;19.80;;;;;;;18.94;48.14;102155.78;5057916;28;20448;-47
2021/05/31 01:36:37;;;;;;;40.93;21.27;;;;;;;18.99;48.07;102150.66;5055951;28;20793;-49
2021/05/31 01:39:05;;;;;;;39.47;22.60;;;;;;;19.46;47.74;102155.50;5058059;28;20755;-49
2021/05/31 01:41:32;;;;;;;38.90;20.67;;;;;;;19.19;47.07;102145.16;5056451;28;20846;-50
2021/05/31 01:44:01;;;;;;;42.37;20.77;;;;;;;19.15;46.58;102152.91;5057918;28;20770;-47
2021/05/31 01:46:29;;;;;;;46.17;19.10;;;;;;;19.17;47.04;102147.72;5056234;28;20502;-47
2021/05/31 01:48:57;;;;;;;39.70;20.27;;;;;;;19.21;47.07;102144.34;5057453;28;20536;-50
2021/05/31 01:51:24;;;;;;;39.13;20.20;;;;;;;18.98;47.37;102151.50;5056183;28;20479;-46
2021/05/31 01:53:52;;;;;;;36.73;19.53;;;;;;;18.43;49.07;102151.63;5057506;28;20456;-52
2021/05/31 01:56:20;;;;;;;43.30;21.17;;;;;;;18.70;48.30;102146.34;5055905;28;20491;-50
2021/05/31 01:58:48;;;;;;;38.83;19.63;;;;;;;18.48;49.06;102150.94;5057371;28;20476;-49
2021/05/31 02:01:17;;;;;;;44.00;20.73;;;;;;;18.76;48.78;102146.53;5055659;28;20941;-49
2021/05/31 02:03:44;;;;;;;36.90;20.50;;;;;;;18.63;48.84;102149.63;5057339;28;20463;-47
2021/05/31 02:06:11;;;;;;;41.50;21.23;;;;;;;18.82;47.92;102151.03;5054910;28;20483;-47
2021/05/31 02:08:38;;;;;;;40.03;21.07;;;;;;;18.90;47.57;102148.66;5057129;28;20938;-45
2021/05/31 02:11:14;;;;;;;37.57;20.70;;;;;;;18.93;47.22;102151.38;5056078;28;20491;-49
2021/05/31 02:13:41;;;;;;;55.63;20.70;;;;;;;19.02;47.13;102148.13;5057320;28;20546;-49
2021/05/31 02:16:14;;;;;;;39.63;18.47;;;;;;;18.37;48.46;102156.66;5055483;28;20494;-50
2021/05/31 02:18:47;;;;;;;39.23;19.83;;;;;;;18.15;48.96;102149.00;5057185;28;20507;-45
2021/05/31 02:21:16;;;;;;;34.90;19.00;;;;;;;17.94;49.93;102155.28;5055820;28;20483;-44
2021/05/31 02:23:43;;;;;;;38.53;19.43;;;;;;;18.03;49.69;102156.41;5056962;28;20466;-49
2021/05/31 02:26:14;;;;;;;34.97;19.83;;;;;;;17.85;49.89;102149.75;5055455;28;20475;-50
2021/05/31 02:28:41;;;;;;;39.00;19.50;;;;;;;17.90;49.76;102149.91;5056466;28;20957;-47
2021/05/31 02:31:08;;;;;;;39.53;19.53;;;;;;;18.35;49.24;102147.03;5055531;28;20858;-51
2021/05/31 02:33:36;;;;;;;39.73;19.43;;;;;;;18.42;49.16;102150.75;5056799;28;20462;-48
2021/05/31 02:36:05;;;;;;;62.70;32.63;;;;;;;17.95;50.38;102138.75;5067603;28;20933;-49
2021/05/31 02:38:32;;;;;;;61.17;30.77;;;;;;;18.19;50.11;102143.06;5076585;28;20780;-46
2021/05/31 02:40:59;;;;;;;56.53;28.43;;;;;;;18.28;49.85;102138.94;5075292;28;20565;-46
2021/05/31 02:43:27;;;;;;;95.67;48.70;;;;;;;17.86;50.46;102141.09;5076653;28;20454;-49
2021/05/31 02:45:54;;;;;;;43.37;23.10;;;;;;;18.02;51.26;102138.97;5074940;28;20481;-47
2021/05/31 02:48:22;;;;;;;54.93;28.30;;;;;;;18.02;50.09;102139.88;5076606;28;20781;-50
2021/05/31 02:50:50;;;;;;;42.77;24.60;;;;;;;18.14;49.38;102142.00;5075156;28;20482;-47
2021/05/31 02:53:18;;;;;;;48.33;23.47;;;;;;;18.20;49.61;102136.13;5076397;28;20889;-47
2021/05/31 02:55:45;;;;;;;44.33;23.97;;;;;;;18.11;49.93;102134.09;5074598;28;20921;-46
2021/05/31 02:58:12;;;;;;;62.87;30.73;;;;;;;17.66;50.10;102136.06;5076165;28;20483;-47
2021/05/31 03:00:39;;;;;;;296.13;154.43;;;;;;;17.76;50.53;102136.38;5074904;28;20489;-50
2021/05/31 03:03:09;;;;;;;75.27;39.70;;;;;;;17.86;49.74;102137.56;5076334;28;20455;-48
2021/05/31 03:05:37;;;;;;;42.87;22.10;;;;;;;17.84;49.10;102139.25;5074775;28;20783;-47
2021/05/31 03:08:04;;;;;;;78.23;39.03;;;;;;;18.02;48.86;102138.97;5076081;28;20479;-52
2021/05/31 03:10:33;;;;;;;56.63;26.53;;;;;;;17.37;50.53;102135.03;5074701;28;20501;-47
2021/05/31 03:13:01;;;;;;;53.20;27.90;;;;;;;17.38;50.25;102140.31;5076321;28;20454;-48
2021/05/31 03:15:28;;;;;;;70.27;33.40;;;;;;;17.11;51.28;102143.72;5074139;28;20792;-51
2021/05/31 03:17:55;;;;;;;55.53;28.60;;;;;;;17.04;51.11;102139.09;5075801;28;20477;-47
2021/05/31 03:20:24;;;;;;;45.10;23.57;;;;;;;17.12;51.18;102139.34;5074696;28;20479;-50
2021/05/31 03:22:51;;;;;;;67.87;35.33;;;;;;;17.33;50.87;102141.88;5075553;28;20913;-50
2021/05/31 03:25:18;;;;;;;67.70;33.63;;;;;;;17.18;50.74;102141.31;5074760;28;20565;-48
2021/05/31 03:27:47;;;;;;;46.03;23.53;;;;;;;17.11;51.61;102141.09;5075454;28;20454;-48
2021/05/31 03:30:16;;;;;;;85.37;44.33;;;;;;;17.71;51.28;102145.75;5074561;28;20509;-50
2021/05/31 03:32:43;;;;;;;48.70;23.33;;;;;;;17.29;49.91;102145.22;5075726;28;20454;-46
2021/05/31 03:35:11;;;;;;;34.40;17.70;;;;;;;16.71;51.52;102156.09;5074282;28;21537;-50
2021/05/31 03:37:39;;;;;;;60.93;29.63;;;;;;;17.27;51.15;102146.84;5075584;28;20457;-48
2021/05/31 03:40:07;;;;;;;44.67;25.73;;;;;;;17.87;48.95;102145.47;5074482;28;20482;-50
2021/05/31 03:42:34;;;;;;;50.73;27.33;;;;;;;17.66;49.52;102143.00;5075855;28;20459;-48
2021/05/31 03:45:05;;;;;;;58.90;32.20;;;;;;;17.26;51.16;102145.09;5074357;28;20917;-45
2021/05/31 03:47:32;;;;;;;70.93;37.27;;;;;;;17.54;50.53;102146.09;5075362;28;20455;-47
2021/05/31 03:49:59;;;;;;;43.40;21.37;;;;;;;17.54;49.81;102141.75;5074139;28;20564;-48
2021/05/31 03:52:26;;;;;;;48.60;25.20;;;;;;;17.72;49.23;102144.94;5075778;28;20450;-48
2021/05/31 03:54:53;;;;;;;38.77;22.60;;;;;;;17.89;48.95;102146.38;5074077;28;20485;-46
2021/05/31 03:57:21;;;;;;;46.50;21.73;;;;;;;17.54;49.49;102146.09;5075296;28;20461;-48
2021/05/31 03:59:50;;;;;;;51.90;28.00;;;;;;;17.97;50.02;102141.44;5074105;28;20769;-51
2021/05/31 04:02:19;;;;;;;45.30;19.33;;;;;;;17.98;48.49;102147.53;5075461;28;20454;-47
2021/05/31 04:04:51;;;;;;;37.43;18.80;;;;;;;17.79;49.19;102137.38;5073848;28;20477;-49
2021/05/31 04:11:33;;;;;;;44.80;22.50;;;;;;;18.10;49.24;102137.50;5075047;28;20457;-50
2021/05/31 04:12:58;;;;;;;36.80;18.37;;;;;;;18.07;48.51;102126.97;5075217;28;20553;-52
2021/05/31 04:15:25;;;;;;;44.37;23.50;;;;;;;17.91;49.50;102131.69;5073778;28;20486;-47
2021/05/31 04:17:53;;;;;;;37.80;19.30;;;;;;;17.90;49.15;102124.66;5075319;28;20468;-50
2021/05/31 04:20:22;;;;;;;40.13;22.30;;;;;;;17.98;50.01;102126.63;5074039;28;20478;-47
2021/05/31 04:22:49;;;;;;;33.10;17.60;;;;;;;18.03;48.72;102127.69;5075059;28;20454;-47
2021/05/31 04:25:17;;;;;;;40.70;22.70;;;;;;;18.08;49.94;102128.75;5073924;28;20502;-47
2021/05/31 04:27:44;;;;;;;35.67;18.03;;;;;;;18.25;48.47;102117.97;5074631;28;20455;-49
2021/05/31 04:30:12;;;;;;;40.53;21.60;;;;;;;18.51;48.79;102117.88;5076093;28;20475;-48
2021/05/31 04:32:39;;;;;;;41.07;21.90;;;;;;;18.85;48.12;102129.34;5079187;28;20455;-49
2021/05/31 04:35:09;;;;;;;39.27;21.73;;;;;;;18.77;47.50;102123.91;5077632;28;20493;-45
2021/05/31 04:37:36;;;;;;;45.43;23.90;;;;;;;19.29;47.21;102126.25;5078717;28;20454;-44
2021/05/31 04:40:05;;;;;;;51.80;27.77;;;;;;;19.36;46.84;102114.22;5077538;28;20482;-47
2021/05/31 04:42:33;;;;;;;41.83;22.87;;;;;;;19.36;46.56;102119.44;5079049;28;20463;-49
2021/05/31 04:45:00;;;;;;;36.47;20.70;;;;;;;19.32;46.21;102121.09;5077608;28;20482;-49
2021/05/31 04:47:27;;;;;;;28.40;15.83;;;;;;;19.28;46.33;102119.25;5078509;28;20900;-45
2021/05/31 04:49:55;;;;;;;40.57;21.37;;;;;;;18.95;46.87;102115.69;5077714;28;20489;-49
2021/05/31 04:52:23;;;;;;;36.20;18.60;;;;;;;19.41;46.43;102112.59;5078723;28;20773;-51
2021/05/31 04:54:51;;;;;;;31.70;17.37;;;;;;;19.74;45.62;102116.94;5077356;28;20913;-47
2021/05/31 04:57:18;;;;;;;34.07;18.67;;;;;;;19.80;45.67;102114.47;5078246;28;20482;-45
2021/05/31 04:59:45;;;;;;;34.00;18.80;;;;;;;19.98;45.61;102113.19;5077391;28;20473;-48
2021/05/31 05:02:12;;;;;;;21.17;14.10;;;;;;;20.15;44.71;102123.19;5078670;28;20461;-47
2021/05/31 05:04:39;;;;;;;22.80;13.50;;;;;;;20.33;43.60;102110.53;5077129;28;20490;-48
2021/05/31 05:07:06;;;;;;;28.87;14.43;;;;;;;20.16;44.64;102119.72;5077974;28;20457;-50
2021/05/31 05:09:35;;;;;;;20.70;11.30;;;;;;;20.35;42.79;102118.41;5077288;28;20790;-49
2021/05/31 05:12:03;;;;;;;24.80;13.87;;;;;;;20.03;42.46;102122.06;5078504;28;20459;-45
2021/05/31 05:14:30;;;;;;;19.17;10.67;;;;;;;20.01;42.28;102123.75;5076429;28;20753;-47
2021/05/31 05:16:57;;;;;;;21.67;11.17;;;;;;;20.41;41.91;102118.53;5077413;28;20937;-47
2021/05/31 05:19:24;;;;;;;19.30;9.83;;;;;;;20.59;41.40;102112.84;5077062;28;20489;-48
2021/05/31 05:21:51;;;;;;;18.77;10.40;;;;;;;20.60;40.73;102114.59;5077877;28;20926;-48
2021/05/31 05:24:18;;;;;;;23.43;12.43;;;;;;;20.72;40.81;102120.97;5076973;28;20462;-48
2021/05/31 05:26:47;;;;;;;17.83;10.43;;;;;;;20.34;41.01;102120.16;5077615;28;20488;-49
2021/05/31 05:29:14;;;;;;;20.00;9.00;;;;;;;20.83;39.92;102108.97;5077779;28;20478;-50
2021/05/31 05:31:41;;;;;;;15.73;8.63;;;;;;;20.64;39.82;102116.44;5076723;28;20479;-47
2021/05/31 05:34:08;;;;;;;14.20;7.63;;;;;;;20.63;39.20;102116.41;5077900;28;20490;-48
2021/05/31 05:36:44;;;;;;;13.70;8.60;;;;;;;20.51;39.59;102115.28;5075845;28;20480;-44
2021/05/31 05:39:33;;;;;;;18.07;8.00;;;;;;;20.54;39.99;102119.72;5077845;28;20797;-51
2021/05/31 05:42:18;;;;;;;12.57;8.20;;;;;;;20.72;39.56;102119.19;5076204;28;20451;-46
2021/05/31 05:50:14;;;;;;;11.47;7.00;;;;;;;21.08;38.22;102119.97;5075026;28;20480;-47
2021/05/31 05:52:41;;;;;;;15.70;6.50;;;;;;;21.28;38.40;102120.34;5077397;28;20479;-49
2021/05/31 05:55:10;;;;;;;10.83;5.83;;;;;;;20.96;37.54;102119.75;5076089;28;20488;-50
2021/05/31 05:57:39;;;;;;;12.60;6.53;;;;;;;21.26;37.50;102121.16;5077328;28;20486;-44
2021/05/31 06:00:09;;;;;;;10.47;6.30;;;;;;;21.35;37.50;102120.47;5076132;28;20499;-49
2021/05/31 06:02:36;;;;;;;14.00;6.20;;;;;;;21.52;36.00;102123.38;5077392;28;20465;-51
2021/05/31 06:05:04;;;;;;;27.23;14.23;;;;;;;21.22;35.87;102122.84;5075842;28;20575;-50
2021/05/31 06:07:31;;;;;;;13.27;5.17;;;;;;;21.02;35.67;102114.63;5076813;28;20463;-50
2021/05/31 06:09:58;;;;;;;10.90;6.00;;;;;;;21.12;34.32;102120.94;5075797;28;20476;-49
2021/05/31 06:12:25;;;;;;;7.43;3.43;;;;;;;21.43;32.69;102121.50;5077382;28;20450;-50
2021/05/31 06:14:54;;;;;;;8.33;3.57;;;;;;;21.31;31.74;102125.66;5076049;28;20481;-47
2021/05/31 06:17:21;;;;;;;8.17;3.47;;;;;;;20.61;33.00;102120.75;5076864;28;20485;-49
2021/05/31 06:19:48;;;;;;;7.53;3.70;;;;;;;20.82;33.44;102122.03;5075956;28;20485;-49
2021/05/31 06:22:15;;;;;;;8.90;3.40;;;;;;;20.75;32.64;102118.38;5076586;28;20480;-48
2021/05/31 06:24:43;;;;;;;9.80;3.87;;;;;;;21.20;32.44;102121.06;5075628;28;20479;-46
2021/05/31 06:27:11;;;;;;;6.83;3.23;;;;;;;21.27;31.80;102117.72;5076514;28;20452;-47
2021/05/31 06:29:38;;;;;;;8.90;3.73;;;;;;;21.08;32.42;102117.38;5075422;28;20467;-50
2021/05/31 06:32:07;;;;;;;5.53;2.70;;;;;;;20.36;33.79;102121.06;5076822;28;20912;-51
2021/05/31 06:34:34;;;;;;;10.57;3.67;;;;;;;20.62;33.18;102118.13;5075399;28;20462;-50
2021/05/31 06:37:01;;;;;;;8.87;3.50;;;;;;;20.66;34.21;102112.97;5076049;28;20940;-48
2021/05/31 06:39:28;;;;;;;10.37;4.13;;;;;;;21.75;33.04;102125.56;5075106;28;20504;-50
2021/05/31 06:41:55;;;;;;;14.40;5.13;;;;;;;21.97;32.67;102119.81;5076623;28;20493;-47
2021/05/31 06:44:22;;;;;;;8.83;3.87;;;;;;;22.20;32.16;102121.91;5075494;28;20458;-47
2021/05/31 06:46:49;;;;;;;6.53;3.53;;;;;;;22.31;31.63;102122.03;5076037;28;20479;-49
2021/05/31 06:49:18;;;;;;;7.17;3.70;;;;;;;22.31;31.27;102119.41;5074995;28;20481;-51
2021/05/31 06:51:46;;;;;;;18.93;9.00;;;;;;;22.49;32.04;102117.91;5076178;28;20527;-48
2021/05/31 06:54:13;;;;;;;7.10;3.43;;;;;;;22.53;30.76;102125.03;5076700;28;20455;-46
2021/05/31 06:56:40;;;;;;;17.30;8.53;;;;;;;22.44;30.33;102117.84;5074653;28;20487;-47
2021/05/31 06:59:07;;;;;;;20.77;11.00;;;;;;;22.37;31.25;102131.78;5076180;28;20485;-47
2021/05/31 07:01:34;;;;;;;11.37;6.73;;;;;;;22.37;30.89;102116.88;5074876;28;20488;-48
2021/05/31 07:04:02;;;;;;;8.50;4.70;;;;;;;22.42;30.96;102122.22;5076401;28;20538;-52
2021/05/31 07:06:30;;;;;;;11.60;6.10;;;;;;;22.91;31.09;102126.34;5074518;28;20488;-48
2021/05/31 07:08:58;;;;;;;8.50;3.80;;;;;;;22.82;29.87;102126.25;5075508;28;20953;-49
2021/05/31 07:11:25;;;;;;;9.77;4.93;;;;;;;23.50;30.00;102128.75;5074821;28;20480;-51
2021/05/31 07:13:54;;;;;;;19.97;12.17;;;;;;;23.27;29.89;102122.38;5076034;28;20458;-48
2021/05/31 07:16:21;;;;;;;25.87;12.97;;;;;;;22.52;30.85;102125.88;5074491;28;20493;-48
2021/05/31 07:18:49;;;;;;;7.43;3.60;;;;;;;23.09;30.04;102122.19;5076001;28;20477;-48
2021/05/31 07:21:16;;;;;;;14.37;8.00;;;;;;;23.36;30.20;102121.63;5081091;28;20476;-47
2021/05/31 07:23:44;;;;;;;16.57;7.50;;;;;;;23.59;29.85;102119.19;5085118;28;20469;-50
2021/05/31 07:26:11;;;;;;;13.50;6.83;;;;;;;23.69;29.47;102119.28;5086296;28;20963;-50
2021/05/31 07:28:38;;;;;;;11.70;4.63;;;;;;;23.92;29.18;102116.84;5074748;28;20486;-49
2021/05/31 07:31:06;;;;;;;11.00;5.17;;;;;;;24.07;29.75;102121.38;5073965;28;20538;-50
2021/05/31 07:33:33;;;;;;;10.90;5.87;;;;;;;23.56;29.07;102113.03;5075707;28;20478;-48
2021/05/31 07:36:02;;;;;;;8.43;3.70;;;;;;;23.81;29.17;102108.84;5073907;28;20478;-49
2021/05/31 07:38:29;;;;;;;9.47;5.50;;;;;;;23.83;29.42;102107.09;5075561;28;20486;-50
2021/05/31 07:40:58;;;;;;;13.30;3.47;;;;;;;24.43;28.32;102104.84;5074164;28;20478;-48
2021/05/31 07:43:25;;;;;;;4.90;2.70;;;;;;;23.76;27.37;102105.31;5075377;28;20464;-52
2021/05/31 07:45:52;;;;;;;9.33;5.37;;;;;;;24.25;27.77;102107.41;5073526;28;20484;-51
2021/05/31 07:48:19;;;;;;;9.00;4.60;;;;;;;24.31;27.34;102106.59;5071273;28;20500;-53
2021/05/31 07:50:47;;;;;;;15.00;7.20;;;;;;;24.25;26.96;102099.50;5077852;28;20467;-49
2021/05/31 07:53:19;;;;;;;35.67;21.97;;;;;;;23.97;26.97;102103.69;5075092;28;20474;-51
2021/05/31 07:55:46;;;;;;;12.53;4.17;;;;;;;23.76;26.71;102104.41;5073393;28;20486;-47
2021/05/31 07:58:15;;;;;;;11.77;5.67;;;;;;;24.31;27.83;102106.59;5075026;28;20487;-51
2021/05/31 08:00:42;;;;;;;27.20;16.73;;;;;;;24.80;26.55;102099.75;5074033;28;20480;-46
2021/05/31 08:03:09;;;;;;;8.33;3.20;;;;;;;24.83;25.88;102098.91;5074591;28;20455;-55
2021/05/31 08:05:36;;;;;;;5.80;2.60;;;;;;;24.49;26.38;102097.88;5073239;28;20470;-54
2021/05/31 08:08:04;;;;;;;6.30;3.17;;;;;;;24.36;26.57;102096.91;5074918;28;20475;-47
2021/05/31 08:10:32;;;;;;;15.50;8.00;;;;;;;24.93;26.18;102093.66;5073343;28;20483;-52
2021/05/31 08:12:59;;;;;;;7.67;3.70;;;;;;;24.34;25.29;102098.69;5075124;28;20461;-52
2021/05/31 08:15:27;;;;;;;6.60;3.33;;;;;;;24.16;25.64;102098.56;5073465;28;20491;-49
2021/05/31 08:17:55;;;;;;;12.43;6.03;;;;;;;25.06;25.96;102096.31;5074856;28;20493;-51
2021/05/31 08:20:22;;;;;;;9.10;2.87;;;;;;;24.89;24.76;102102.47;5073600;28;20481;-53
2021/05/31 08:22:49;;;;;;;11.83;3.13;;;;;;;25.27;25.66;102099.91;5074641;28;20912;-49
2021/05/31 08:25:18;;;;;;;9.13;4.37;;;;;;;25.06;26.00;102104.25;5073738;28;20487;-45
2021/05/31 08:27:45;;;;;;;7.07;2.73;;;;;;;25.06;25.63;102105.13;5074726;28;20461;-54
2021/05/31 08:30:14;;;;;;;6.87;3.20;;;;;;;25.24;25.20;102095.50;5073382;28;20494;-52
2021/05/31 08:32:43;;;;;;;10.50;3.80;;;;;;;25.34;25.62;102099.03;5080781;28;20457;-49
2021/05/31 08:35:10;;;;;;;7.00;2.60;;;;;;;25.01;24.98;102095.47;5083834;28;20473;-53
2021/05/31 08:37:38;;;;;;;7.10;3.30;;;;;;;25.41;26.81;102098.16;5080434;28;20503;-55
2021/05/31 08:40:07;;;;;;;8.67;3.77;;;;;;;25.78;26.08;102097.28;5074876;28;20500;-55
2021/05/31 08:42:40;;;;;;;6.97;2.03;;;;;;;25.10;26.08;102095.47;5074923;28;20458;-54
2021/05/31 08:45:10;;;;;;;10.30;3.60;;;;;;;25.14;25.03;102086.69;5073228;28;20467;-52
2021/05/31 08:47:39;;;;;;;13.13;5.00;;;;;;;25.63;26.23;102092.03;5074479;28;20461;-48
2021/05/31 08:50:09;;;;;;;8.93;2.67;;;;;;;25.51;24.74;102090.22;5083531;28;20479;-54
2021/05/31 08:52:37;;;;;;;6.77;3.13;;;;;;;25.97;24.97;102087.59;5077694;28;20459;-52
2021/05/31 08:55:06;;;;;;;11.40;4.40;;;;;;;26.50;24.95;102082.16;5073260;28;20474;-55
2021/05/31 08:57:33;;;;;;;11.47;4.57;;;;;;;26.60;24.54;102079.47;5074167;28;20802;-45
2021/05/31 09:00:00;;;;;;;6.17;2.17;;;;;;;25.36;26.31;102081.41;5072917;28;20478;-47
2021/05/31 09:02:31;;;;;;;16.70;5.73;;;;;;;25.97;24.24;102078.75;5078208;28;20471;-52
2021/05/31 09:04:58;;;;;;;15.17;7.00;;;;;;;25.92;24.35;102078.78;5076696;28;20808;-51
2021/05/31 09:07:27;;;;;;;26.63;9.53;;;;;;;26.03;25.12;102076.09;5074338;28;20451;-51
2021/05/31 09:09:55;;;;;;;6.93;2.50;;;;;;;25.99;23.97;102067.31;5073025;28;20488;-49
2021/05/31 09:12:27;;;;;;;11.80;4.00;;;;;;;26.19;24.39;102066.38;5074404;28;20974;-49
2021/05/31 09:14:55;;;;;;;9.00;4.30;;;;;;;26.41;24.45;102068.97;5078775;28;20476;-51
2021/05/31 09:17:26;;;;;;;6.57;2.63;;;;;;;26.85;23.93;102068.78;5076949;28;20796;-56
2021/05/31 09:19:54;;;;;;;7.60;3.67;;;;;;;26.34;24.57;102073.41;5076762;28;20998;-49
2021/05/31 09:22:21;;;;;;;7.47;2.90;;;;;;;26.31;24.82;102075.19;5077268;28;20909;-49
2021/05/31 09:25:00;;;;;;;5.63;2.77;;;;;;;26.25;24.22;102073.44;5075658;28;20475;-50
2021/05/31 09:27:28;;;;;;;12.00;6.13;;;;;;;26.43;25.41;102072.50;5076786;28;20923;-52
2021/05/31 09:29:57;;;;;;;6.37;2.73;;;;;;;26.39;23.83;102076.91;5075485;28;20477;-48
2021/05/31 09:32:24;;;;;;;8.10;4.37;;;;;;;27.18;25.36;102072.09;5076207;28;20474;-50
2021/05/31 09:35:00;;;;;;;7.90;3.10;;;;;;;27.06;24.33;102078.34;5085625;28;20980;-53
2021/05/31 09:37:27;;;;;;;7.93;2.87;;;;;;;27.06;23.88;102073.94;5082262;28;20489;-53
2021/05/31 09:40:00;;;;;;;7.90;3.20;;;;;;;26.71;23.47;102066.19;5076359;28;20530;-50
2021/05/31 09:42:27;;;;;;;8.00;2.80;;;;;;;27.54;23.36;102067.41;5077789;28;20559;-49
2021/05/31 09:45:00;;;;;;;10.63;3.83;;;;;;;27.54;23.42;102064.75;5076121;28;20485;-50
2021/05/31 09:47:28;;;;;;;7.07;3.30;;;;;;;27.41;24.05;102058.69;5076928;28;20474;-57
2021/05/31 09:49:55;;;;;;;7.70;3.83;;;;;;;26.92;24.90;102060.78;5076751;28;20471;-54
2021/05/31 09:52:22;;;;;;;5.00;2.90;;;;;;;26.67;25.43;102052.97;5078492;28;20470;-52
2021/05/31 09:54:50;;;;;;;16.00;9.67;;;;;;;27.37;25.24;102056.94;5087151;28;20472;-48
2021/05/31 09:57:21;;;;;;;30.40;18.80;;;;;;;26.79;26.00;102054.69;5090153;28;20509;-47
2021/05/31 09:59:51;;;;;;;11.70;5.40;;;;;;;27.50;24.67;102058.59;5075993;28;20481;-50
2021/05/31 10:02:24;;;;;;;20.03;11.77;;;;;;;28.29;24.82;102045.44;5082461;28;20902;-57
2021/05/31 10:05:05;;;;;;;11.30;5.00;;;;;;;28.02;25.07;102050.16;5075777;28;20788;-49
2021/05/31 10:07:45;;;;;;;11.33;4.77;;;;;;;27.83;25.46;102047.72;5076825;28;20458;-52
2021/05/31 10:10:13;;;;;;;10.60;4.80;;;;;;;28.14;25.10;102038.56;5075960;28;20474;-55
2021/05/31 10:12:53;;;;;;;9.30;5.10;;;;;;;27.03;27.72;102036.03;5088160;28;20479;-51
2021/05/31 10:15:23;;;;;;;11.47;4.80;;;;;;;27.99;26.06;102031.66;5089365;28;20471;-48
2021/05/31 10:17:53;;;;;;;7.70;3.37;;;;;;;27.88;24.98;102032.63;5096890;28;20485;-55
2021/05/31 10:20:20;;;;;;;10.97;3.83;;;;;;;27.58;25.98;102028.53;5096024;28;20474;-50
2021/05/31 10:22:47;;;;;;;8.20;3.83;;;;;;;27.48;25.72;102033.88;5097037;28;20481;-51
2021/05/31 10:25:16;;;;;;;9.53;4.90;;;;;;;27.85;25.55;102027.38;5095088;28;20477;-51
2021/05/31 10:27:45;;;;;;;12.00;4.90;;;;;;;28.20;25.59;102037.59;5092190;28;20473;-46
2021/05/31 10:30:15;;;;;;;6.90;3.70;;;;;;;28.16;24.56;102028.78;5084238;28;20485;-53
2021/05/31 10:32:43;;;;;;;7.80;3.90;;;;;;;28.42;24.29;102025.84;5083568;28;20487;-55
2021/05/31 10:35:14;;;;;;;8.63;4.13;;;;;;;28.53;25.55;102024.78;5084231;28;20527;-52
2021/05/31 10:37:51;;;;;;;8.53;3.97;;;;;;;28.71;23.96;102021.03;5081520;28;20483;-54
2021/05/31 10:40:19;;;;;;;7.00;3.20;;;;;;;29.02;24.14;102019.69;5084625;28;20484;-55
2021/05/31 10:42:48;;;;;;;11.23;3.10;;;;;;;29.02;24.09;102014.38;5086159;28;20461;-52
2021/05/31 10:45:26;;;;;;;5.60;3.50;;;;;;;28.42;24.80;102017.00;5077119;28;20474;-51
2021/05/31 10:48:07;;;;;;;5.43;3.00;;;;;;;28.40;24.59;102009.03;5075186;28;20457;-49
2021/05/31 10:50:37;;;;;;;7.13;3.20;;;;;;;27.99;25.20;102008.63;5073968;28;20479;-55
2021/05/31 10:53:08;;;;;;;6.20;3.30;;;;;;;29.08;24.43;102006.31;5075250;28;20454;-50
2021/05/31 10:55:48;;;;;;;5.93;3.33;;;;;;;29.11;24.84;102009.78;5073731;28;20943;-52
2021/05/31 10:58:16;;;;;;;7.17;3.40;;;;;;;28.73;24.70;102008.59;5075330;28;20482;-52
2021/05/31 11:00:52;;;;;;;8.50;3.93;;;;;;;29.13;24.95;102004.47;5074003;28;20474;-54
2021/05/31 11:03:20;;;;;;;9.17;3.00;;;;;;;28.98;24.42;102003.78;5075149;28;20458;-47
2021/05/31 11:05:47;;;;;;;8.07;3.80;;;;;;;28.82;24.70;102000.47;5073973;28;20478;-50
2021/05/31 11:08:24;;;;;;;10.90;3.83;;;;;;;29.53;24.35;101992.28;5075296;28;20929;-53
2021/05/31 11:10:55;;;;;;;6.73;3.60;;;;;;;29.40;25.21;102002.22;5074027;28;20774;-54
2021/05/31 11:13:22;;;;;;;7.50;3.30;;;;;;;28.90;24.54;101995.09;5074889;28;20465;-50
2021/05/31 11:16:05;;;;;;;6.87;3.20;;;;;;;29.30;24.07;102001.50;5073361;28;21026;-51
2021/05/31 11:18:43;;;;;;;6.43;3.40;;;;;;;29.35;24.46;101996.09;5075267;28;20573;-53
2021/05/31 11:21:12;;;;;;;7.10;3.53;;;;;;;29.13;24.17;102003.56;5073240;28;20469;-51
2021/05/31 11:23:39;;;;;;;10.10;3.60;;;;;;;28.98;24.21;102001.13;5074678;28;20538;-51
2021/05/31 11:26:07;;;;;;;7.57;3.30;;;;;;;29.36;24.29;101990.78;5073518;28;20471;-55
2021/05/31 11:28:34;;;;;;;7.20;3.97;;;;;;;28.76;26.89;101994.41;5074950;28;20471;-54
2021/05/31 11:31:01;;;;;;;6.93;4.03;;;;;;;29.04;25.87;101996.63;5073874;28;20485;-55